Time;durP1;ratioP1;P1;durP2;ratioP2;P2;SDS_P1;SDS_P2;PMS_P1;PMS_P2;Temp;Humidity;BMP_temperature;BMP_pressure;BME280_temperature;BME280_humidity;BME280_pressure;Samples;Min_cycle;Max_cycle;Signal;HPM_P1;HPM_P2
2023/01/17 00:00:52;;;;;;;24.90;14.60;;;;;;;6.13;87.58;99506.20;110311;1235;60621;-66
2023/01/17 00:03:23;;;;;;;25.70;15.50;;;;;;;6.08;87.40;99498.80;110404;1237;62734;-66
2023/01/17 00:11:26;;;;;;;22.50;14.10;;;;;;;6.00;88.08;99493.66;110408;1235;63890;-66
2023/01/17 00:13:55;;;;;;;25.40;14.80;;;;;;;5.99;88.13;99491.97;110304;1238;59019;-67
2023/01/17 00:16:24;;;;;;;22.90;13.70;;;;;;;5.99;88.08;99488.36;110322;1235;60228;-66
2023/01/17 01:35:31;;;;;;;24.20;15.30;;;;;;;5.81;88.03;99446.13;110412;1235;62113;-69
2023/01/17 01:38:02;;;;;;;26.50;15.60;;;;;;;5.87;87.64;99440.36;110376;1238;57762;-68
2023/01/17 01:40:31;;;;;;;24.60;15.40;;;;;;;5.87;87.41;99441.89;110363;1235;73483;-69
2023/01/17 01:43:04;;;;;;;25.20;13.80;;;;;;;5.84;87.65;99442.11;110444;1235;73102;-69
2023/01/17 01:45:33;;;;;;;25.70;14.10;;;;;;;5.86;87.98;99442.48;110369;1238;60674;-68
2023/01/17 01:48:12;;;;;;;25.10;16.20;;;;;;;5.83;87.87;99442.86;110361;1239;63906;-68
2023/01/17 01:50:40;;;;;;;27.60;15.70;;;;;;;5.78;88.07;99442.40;110468;1239;62548;-68
2023/01/17 01:53:10;;;;;;;22.00;12.70;;;;;;;5.72;88.44;99446.80;110461;1239;57721;-69
2023/01/17 01:55:41;;;;;;;25.80;15.10;;;;;;;5.73;88.29;99451.17;110211;1235;72149;-69
2023/01/17 01:58:20;;;;;;;23.70;14.40;;;;;;;5.79;87.89;99461.63;110456;1236;73282;-70
2023/01/17 02:00:50;;;;;;;24.40;14.30;;;;;;;5.83;87.70;99457.35;110376;1235;70397;-69
2023/01/17 02:03:26;;;;;;;25.00;15.90;;;;;;;5.89;87.33;99453.48;110364;1238;73250;-69
2023/01/17 02:06:03;;;;;;;24.10;14.10;;;;;;;5.94;86.82;99452.44;110359;1238;57657;-69
2023/01/17 02:08:33;;;;;;;25.30;14.50;;;;;;;5.94;86.78;99452.45;110350;1238;57698;-69
2023/01/17 02:11:02;;;;;;;23.50;14.20;;;;;;;5.96;86.24;99449.52;110164;1235;72416;-69
2023/01/17 02:13:30;;;;;;;25.00;14.30;;;;;;;5.96;86.16;99455.47;110400;1237;72503;-69
2023/01/17 02:16:14;;;;;;;25.70;15.50;;;;;;;5.93;86.64;99455.96;110334;1235;70578;-68
2023/01/17 02:19:00;;;;;;;23.90;15.00;;;;;;;5.97;86.30;99452.80;110382;1235;74425;-72
2023/01/17 02:21:57;;;;;;;27.80;14.80;;;;;;;5.92;86.86;99452.77;110390;1238;62425;-68
2023/01/17 02:25:01;;;;;;;23.50;14.10;;;;;;;5.86;86.65;99446.63;110375;1235;61650;-69
2023/01/17 02:28:16;;;;;;;22.20;14.10;;;;;;;5.85;87.01;99445.15;110395;1238;63338;-69
2023/01/17 02:30:50;;;;;;;24.50;14.60;;;;;;;5.84;87.45;99447.99;110388;1238;61382;-68
2023/01/17 02:33:53;;;;;;;24.30;15.20;;;;;;;5.84;86.96;99451.80;110297;1235;69711;-68
2023/01/17 02:36:35;;;;;;;24.70;14.60;;;;;;;5.78;87.59;99461.73;110200;1238;72897;-69
2023/01/17 02:39:42;;;;;;;25.20;14.40;;;;;;;5.77;87.29;99462.63;110321;1238;63369;-69
2023/01/17 02:42:20;;;;;;;24.50;14.80;;;;;;;5.74;87.50;99459.77;109937;1243;57726;-69
2023/01/17 02:44:49;;;;;;;24.00;15.60;;;;;;;5.73;87.69;99460.90;110340;1235;72548;-69
2023/01/17 02:47:29;;;;;;;27.30;16.90;;;;;;;5.69;88.50;99464.48;110333;1239;72456;-68
2023/01/17 02:50:13;;;;;;;24.90;15.20;;;;;;;5.64;88.54;99453.76;110296;1235;70424;-70
2023/01/17 02:53:27;;;;;;;24.60;14.60;;;;;;;5.62;88.74;99450.11;110312;1235;73383;-69
2023/01/17 02:56:12;;;;;;;27.40;15.30;;;;;;;5.63;88.94;99448.14;110314;1238;57138;-68
2023/01/17 02:59:03;;;;;;;26.30;15.30;;;;;;;5.61;88.82;99446.87;110269;1235;60790;-69
2023/01/17 03:02:40;;;;;;;24.90;14.70;;;;;;;5.55;89.19;99443.17;110378;1235;73921;-69
2023/01/17 03:05:19;;;;;;;26.00;15.00;;;;;;;5.46;89.53;99441.17;109500;1241;72763;-68
2023/01/17 03:07:50;;;;;;;26.70;15.60;;;;;;;5.41;89.49;99443.64;110381;1235;69339;-68
2023/01/17 03:10:20;;;;;;;27.40;15.50;;;;;;;5.29;90.29;99442.71;110338;1236;62776;-71
2023/01/17 03:12:54;;;;;;;27.60;15.40;;;;;;;5.26;90.28;99448.86;110185;1239;57626;-67
2023/01/17 03:15:23;;;;;;;28.70;16.10;;;;;;;5.17;91.24;99446.36;110459;1235;57642;-70
2023/01/17 03:17:57;;;;;;;28.00;16.50;;;;;;;5.12;91.58;99442.60;110399;1235;70892;-68
2023/01/17 03:20:26;;;;;;;29.40;17.10;;;;;;;5.08;92.03;99444.23;110409;1235;60938;-69
2023/01/17 03:22:55;;;;;;;29.30;16.80;;;;;;;5.06;92.35;99444.03;110433;1235;70429;-70
2023/01/17 03:25:24;;;;;;;29.50;16.50;;;;;;;5.05;92.62;99438.21;110387;1235;74955;-68
2023/01/17 03:27:52;;;;;;;29.90;16.60;;;;;;;5.06;92.99;99433.52;110364;1235;62400;-69
2023/01/17 03:30:21;;;;;;;31.10;17.00;;;;;;;5.01;92.80;99437.27;110383;1235;57678;-69
2023/01/17 03:32:50;;;;;;;32.60;16.50;;;;;;;4.97;92.93;99446.89;110307;1235;64024;-68
2023/01/17 03:35:19;;;;;;;30.20;16.90;;;;;;;4.94;94.24;99448.33;110222;1235;61382;-69
2023/01/17 03:37:48;;;;;;;32.40;17.40;;;;;;;4.93;94.63;99450.42;110134;1235;59816;-69
2023/01/17 03:40:17;;;;;;;29.90;16.70;;;;;;;4.93;94.84;99448.72;110104;1235;72861;-68
2023/01/17 03:42:46;;;;;;;30.90;17.50;;;;;;;4.87;94.22;99444.48;110043;1238;64032;-69
2023/01/17 03:45:15;;;;;;;32.50;17.50;;;;;;;4.93;94.76;99449.23;110203;1237;61460;-70
2023/01/17 03:47:43;;;;;;;32.20;16.80;;;;;;;4.95;94.80;99455.66;110220;1235;73060;-69
2023/01/17 03:50:12;;;;;;;28.60;17.10;;;;;;;4.96;94.84;99454.02;110131;1238;61410;-69
2023/01/17 03:52:41;;;;;;;30.10;17.40;;;;;;;4.96;94.98;99446.11;110218;1235;59854;-69
2023/01/17 03:55:10;;;;;;;30.00;16.50;;;;;;;4.93;94.59;99448.39;110234;1235;72330;-70
2023/01/17 03:57:39;;;;;;;27.20;15.30;;;;;;;4.97;94.80;99434.83;110268;1238;57104;-69
2023/01/17 04:00:09;;;;;;;30.30;16.40;;;;;;;4.97;94.54;99416.33;110401;1235;59925;-69
2023/01/17 04:02:38;;;;;;;30.00;16.70;;;;;;;4.95;94.55;99413.23;110256;1235;62714;-68
2023/01/17 04:05:08;;;;;;;29.70;17.10;;;;;;;4.92;94.17;99408.95;110332;1235;60703;-69
2023/01/17 04:07:37;;;;;;;29.70;15.80;;;;;;;4.89;94.24;99411.91;110330;1235;59963;-69
2023/01/17 04:10:07;;;;;;;29.80;17.60;;;;;;;4.87;94.53;99424.32;110338;1235;74361;-69
2023/01/17 04:12:35;;;;;;;29.50;16.70;;;;;;;4.87;94.94;99430.70;110344;1238;62410;-69
2023/01/17 04:15:05;;;;;;;31.20;16.50;;;;;;;4.87;94.63;99432.94;110437;1235;57400;-68
2023/01/17 04:17:34;;;;;;;29.30;15.50;;;;;;;4.87;94.09;99435.54;110295;1235;74220;-69
2023/01/17 04:20:03;;;;;;;29.10;15.10;;;;;;;4.86;94.02;99439.36;110433;1235;73255;-69
2023/01/17 04:22:32;;;;;;;35.00;18.10;;;;;;;4.85;93.79;99436.05;110358;1235;60342;-68
2023/01/17 04:25:04;;;;;;;27.50;16.70;;;;;;;4.84;93.92;99443.88;110432;1235;63368;-69
2023/01/17 04:27:32;;;;;;;30.10;17.30;;;;;;;4.84;93.73;99448.33;110441;1237;62115;-69
2023/01/17 04:30:01;;;;;;;34.70;17.70;;;;;;;4.80;94.83;99450.29;110442;1235;57146;-69
2023/01/17 04:32:30;;;;;;;28.50;17.40;;;;;;;4.77;95.43;99453.06;110337;1235;62643;-69
2023/01/17 04:34:59;;;;;;;30.10;18.30;;;;;;;4.74;94.66;99455.34;110490;1236;72180;-69
2023/01/17 04:37:27;;;;;;;33.60;17.40;;;;;;;4.71;95.63;99461.30;110468;1235;70061;-69
2023/01/17 04:39:56;;;;;;;34.10;17.90;;;;;;;4.70;96.35;99455.46;110318;1235;64406;-70
2023/01/17 04:42:25;;;;;;;30.50;17.80;;;;;;;4.70;96.48;99458.10;110483;1235;57555;-70
2023/01/17 04:44:54;;;;;;;31.90;17.50;;;;;;;4.73;97.05;99454.06;110385;1238;57691;-70
2023/01/17 04:47:23;;;;;;;28.60;17.70;;;;;;;4.80;97.17;99447.02;110388;1235;73595;-70
2023/01/17 04:49:52;;;;;;;31.90;17.30;;;;;;;4.91;96.66;99445.95;110374;1238;72827;-69
2023/01/17 04:52:21;;;;;;;30.50;18.10;;;;;;;4.96;96.27;99440.08;110492;1235;59547;-70
2023/01/17 04:54:51;;;;;;;32.20;17.70;;;;;;;5.00;95.95;99422.34;110475;1235;72963;-70
2023/01/17 04:57:20;;;;;;;33.30;19.40;;;;;;;5.07;95.70;99416.00;110395;1236;57717;-71
2023/01/17 04:59:49;;;;;;;26.40;14.90;;;;;;;5.23;94.59;99417.47;110510;1234;61228;-70
2023/01/17 05:02:18;;;;;;;25.60;15.50;;;;;;;5.28;93.96;99436.76;110593;1234;73900;-70
2023/01/17 05:04:47;;;;;;;31.60;17.10;;;;;;;5.30;93.89;99444.96;110625;1233;71309;-70
2023/01/17 05:07:15;;;;;;;28.20;15.90;;;;;;;5.26;93.98;99443.11;110467;1234;70028;-70
2023/01/17 05:09:44;;;;;;;30.30;17.70;;;;;;;5.26;93.93;99438.27;110513;1235;63414;-71
2023/01/17 05:12:13;;;;;;;27.70;17.30;;;;;;;5.22;94.34;99433.59;110568;1236;57127;-69
2023/01/17 05:14:42;;;;;;;32.80;17.90;;;;;;;5.28;94.51;99431.61;110561;1235;60915;-70
2023/01/17 05:17:10;;;;;;;30.10;18.00;;;;;;;5.36;93.67;99425.86;110551;1234;73972;-71
2023/01/17 05:19:39;;;;;;;27.70;16.50;;;;;;;5.37;93.91;99419.91;110579;1233;61921;-69
2023/01/17 05:22:14;;;;;;;26.90;16.10;;;;;;;5.42;94.12;99435.30;110380;1235;59801;-71
2023/01/17 05:24:45;;;;;;;26.80;16.80;;;;;;;5.40;93.28;99450.15;110405;1235;63222;-71
2023/01/17 05:27:14;;;;;;;28.20;17.70;;;;;;;5.43;93.28;99445.89;110364;1235;62017;-74
2023/01/17 05:29:44;;;;;;;28.00;17.10;;;;;;;5.51;92.70;99445.16;110452;1237;57679;-73
2023/01/17 05:32:13;;;;;;;28.60;17.00;;;;;;;5.52;93.10;99442.50;110608;1233;73413;-73
2023/01/17 05:34:41;;;;;;;29.20;17.70;;;;;;;5.50;92.93;99446.79;110613;1234;72797;-77
2023/01/17 05:37:10;;;;;;;27.60;15.90;;;;;;;5.49;92.96;99440.83;110635;1234;59888;-77
2023/01/17 05:39:40;;;;;;;29.70;17.30;;;;;;;5.49;93.08;99435.10;110439;1234;73901;-76
2023/01/17 05:42:09;;;;;;;27.60;16.10;;;;;;;5.50;93.27;99437.11;110321;1238;62529;-79
2023/01/17 05:44:39;;;;;;;28.00;15.70;;;;;;;5.52;92.97;99443.85;110263;1234;57215;-74
2023/01/17 05:47:08;;;;;;;27.40;15.20;;;;;;;5.52;92.91;99449.73;110638;1236;62913;-75
2023/01/17 05:49:37;;;;;;;29.80;16.50;;;;;;;5.53;92.92;99444.02;110637;1235;72008;-74
2023/01/17 05:52:06;;;;;;;26.40;15.10;;;;;;;5.54;92.73;99449.80;110518;1233;60160;-77
2023/01/17 05:54:35;;;;;;;29.10;16.90;;;;;;;5.57;92.65;99452.30;110700;1234;63350;-75
2023/01/17 05:57:04;;;;;;;28.70;16.50;;;;;;;5.58;92.52;99429.33;110612;1235;62697;-76
2023/01/17 05:59:32;;;;;;;28.50;16.80;;;;;;;5.58;92.71;99425.67;110419;1234;61566;-76
2023/01/17 06:02:04;;;;;;;26.60;15.30;;;;;;;5.60;92.46;99429.30;110592;1234;73985;-74
2023/01/17 06:04:33;;;;;;;25.10;15.50;;;;;;;5.62;92.37;99432.70;110487;1234;72485;-75
2023/01/17 06:07:02;;;;;;;28.60;16.60;;;;;;;5.63;92.17;99423.63;110613;1234;62152;-73
2023/01/17 06:09:31;;;;;;;25.80;14.90;;;;;;;5.64;92.09;99410.26;110560;1234;62941;-73
2023/01/17 06:12:00;;;;;;;27.80;15.50;;;;;;;5.66;91.97;99408.51;110581;1236;57422;-73
2023/01/17 06:14:29;;;;;;;30.50;16.40;;;;;;;5.71;92.09;99415.41;110564;1233;60362;-73
2023/01/17 06:16:57;;;;;;;29.40;17.00;;;;;;;5.72;92.32;99424.30;110594;1234;73967;-71
2023/01/17 06:19:26;;;;;;;29.70;16.40;;;;;;;5.74;91.95;99419.32;110405;1235;61381;-70
2023/01/17 06:21:55;;;;;;;29.00;18.20;;;;;;;5.85;91.78;99433.40;110617;1234;59156;-70
2023/01/17 06:24:24;;;;;;;27.60;15.70;;;;;;;5.95;91.03;99433.52;110594;1235;73176;-74
2023/01/17 06:26:52;;;;;;;25.80;14.50;;;;;;;6.12;91.07;99427.33;110430;1234;62981;-70
2023/01/17 06:29:21;;;;;;;27.20;15.10;;;;;;;6.20;90.01;99430.02;110570;1234;57418;-70
2023/01/17 06:31:50;;;;;;;30.00;16.30;;;;;;;6.24;89.29;99430.00;110307;1236;62738;-70
2023/01/17 06:34:19;;;;;;;24.30;14.30;;;;;;;6.27;88.62;99432.90;110419;1235;60858;-70
2023/01/17 06:36:48;;;;;;;24.60;15.90;;;;;;;6.32;88.35;99439.61;110474;1236;69559;-70
2023/01/17 06:39:16;;;;;;;27.50;16.40;;;;;;;6.39;88.43;99441.00;110308;1234;243056;-70
2023/01/17 06:41:45;;;;;;;26.30;15.80;;;;;;;6.38;88.07;99439.48;110336;1236;57387;-70
2023/01/17 06:44:14;;;;;;;25.50;16.10;;;;;;;6.34;88.25;99431.48;110400;1235;57650;-72
2023/01/17 06:46:43;;;;;;;27.30;15.40;;;;;;;6.30;88.33;99422.14;110152;1234;62106;-70
2023/01/17 06:49:13;;;;;;;30.90;15.70;;;;;;;6.33;87.95;99418.27;110150;1235;62781;-70
2023/01/17 06:51:42;;;;;;;25.20;16.00;;;;;;;6.38;88.14;99416.19;110086;1235;71334;-70
2023/01/17 06:54:11;;;;;;;24.90;15.10;;;;;;;6.35;88.48;99418.42;109934;1235;63729;-71
2023/01/17 06:56:40;;;;;;;26.20;14.50;;;;;;;6.40;88.26;99413.81;110222;1235;57702;-70
2023/01/17 06:59:09;;;;;;;24.70;15.70;;;;;;;6.49;88.08;99404.63;110259;1235;57673;-69
2023/01/17 07:01:39;;;;;;;26.90;15.90;;;;;;;6.55;87.50;99404.46;110223;1235;62113;-71
2023/01/17 07:04:07;;;;;;;28.20;15.80;;;;;;;6.51;86.66;99402.75;110273;1235;63379;-71
2023/01/17 07:06:36;;;;;;;30.50;16.80;;;;;;;6.55;86.16;99395.88;110129;1235;71119;-71
2023/01/17 07:09:05;;;;;;;27.40;17.20;;;;;;;6.57;85.86;99398.47;110191;1235;63725;-73
2023/01/17 07:11:34;;;;;;;25.00;15.70;;;;;;;6.62;85.65;99400.20;110181;1235;61681;-70
2023/01/17 07:14:03;;;;;;;24.90;15.00;;;;;;;6.59;85.37;99392.93;110213;1235;61460;-71
2023/01/17 07:16:33;;;;;;;22.30;13.80;;;;;;;6.57;84.86;99387.40;110231;1235;73205;-71
2023/01/17 07:19:02;;;;;;;24.40;13.60;;;;;;;6.58;84.85;99387.52;110240;1235;72667;-70
2023/01/17 07:21:31;;;;;;;27.50;15.60;;;;;;;6.58;84.72;99385.38;110158;1235;70364;-71
2023/01/17 07:23:59;;;;;;;23.80;15.30;;;;;;;6.64;84.39;99378.59;110264;1235;74116;-72
2023/01/17 07:26:28;;;;;;;23.20;15.10;;;;;;;6.67;83.58;99370.18;110275;1237;57759;-74
2023/01/17 07:28:57;;;;;;;25.20;15.40;;;;;;;6.70;83.78;99370.80;110162;1238;57784;-71
2023/01/17 07:31:26;;;;;;;24.70;15.80;;;;;;;6.78;83.50;99369.83;110276;1235;62456;-72
2023/01/17 07:33:58;;;;;;;25.90;15.90;;;;;;;6.81;82.83;99369.15;110287;1237;60866;-71
2023/01/17 07:36:27;;;;;;;25.30;15.90;;;;;;;6.81;83.19;99375.13;110254;1235;70460;-72
2023/01/17 07:38:55;;;;;;;24.90;15.20;;;;;;;6.85;83.26;99372.23;110252;1235;74351;-72
2023/01/17 07:41:40;;;;;;;25.70;15.30;;;;;;;6.87;83.07;99369.18;110197;1238;57157;-73
2023/01/17 07:44:12;;;;;;;21.70;14.30;;;;;;;6.93;83.06;99366.79;110298;1235;61188;-70
2023/01/17 07:46:41;;;;;;;22.40;13.70;;;;;;;6.93;82.88;99365.60;110079;1238;63489;-71
2023/01/17 07:49:10;;;;;;;22.90;14.60;;;;;;;6.90;82.80;99368.59;110266;1236;60867;-71
2023/01/17 07:51:39;;;;;;;22.70;14.00;;;;;;;6.96;82.27;99362.80;110456;1235;69332;-70
2023/01/17 07:54:10;;;;;;;26.10;13.80;;;;;;;6.89;81.26;99367.95;110279;1235;74130;-71
2023/01/17 07:56:39;;;;;;;24.30;14.00;;;;;;;6.89;80.85;99370.74;110418;1236;61068;-72
2023/01/17 07:59:08;;;;;;;22.00;14.90;;;;;;;6.91;80.71;99371.27;110310;1235;61679;-72
2023/01/17 08:01:37;;;;;;;22.90;14.00;;;;;;;6.88;80.46;99381.19;110180;1235;73932;-71
2023/01/17 08:04:06;;;;;;;21.90;13.50;;;;;;;6.86;80.68;99373.42;110311;1235;72012;-71
2023/01/17 08:06:36;;;;;;;25.60;14.50;;;;;;;6.93;80.57;99373.89;110432;1235;69916;-72
2023/01/17 08:09:05;;;;;;;23.50;12.50;;;;;;;6.99;80.38;99376.03;110295;1238;63716;-71
2023/01/17 08:11:34;;;;;;;22.60;13.70;;;;;;;6.99;80.29;99371.36;110413;1235;62856;-72
2023/01/17 08:14:03;;;;;;;23.10;14.40;;;;;;;7.00;79.85;99359.16;110112;1235;60681;-72
2023/01/17 08:16:32;;;;;;;19.20;12.20;;;;;;;7.01;79.56;99358.40;110158;1238;64021;-71
2023/01/17 08:19:01;;;;;;;21.60;13.70;;;;;;;7.02;79.12;99352.55;110158;1235;72056;-71
2023/01/17 08:21:31;;;;;;;22.30;13.80;;;;;;;7.02;79.29;99352.06;110336;1235;70210;-71
2023/01/17 08:23:59;;;;;;;23.00;13.30;;;;;;;7.06;78.56;99354.30;110241;1235;73602;-70
2023/01/17 08:26:28;;;;;;;18.00;12.10;;;;;;;7.13;78.31;99353.09;110260;1236;57730;-75
2023/01/17 08:28:59;;;;;;;21.20;13.70;;;;;;;7.17;78.11;99355.15;110408;1237;60427;-72
2023/01/17 08:31:34;;;;;;;18.60;12.80;;;;;;;7.20;77.83;99356.86;110316;1238;63845;-71
2023/01/17 08:34:03;;;;;;;18.60;11.90;;;;;;;7.26;77.57;99359.70;110310;1235;72721;-71
2023/01/17 08:36:32;;;;;;;17.90;12.50;;;;;;;7.33;77.29;99364.33;110273;1235;70058;-72
2023/01/17 08:39:00;;;;;;;18.90;12.80;;;;;;;7.39;76.96;99355.16;110417;1235;74831;-71
2023/01/17 08:41:31;;;;;;;20.00;11.90;;;;;;;7.41;76.80;99355.35;110460;1235;57667;-72
2023/01/17 08:43:59;;;;;;;21.70;13.30;;;;;;;7.47;76.78;99355.23;110341;1235;60162;-71
2023/01/17 08:46:28;;;;;;;17.60;12.60;;;;;;;7.50;76.67;99351.56;110327;1238;64093;-71
2023/01/17 08:49:01;;;;;;;23.40;14.20;;;;;;;7.60;76.60;99340.31;110367;1235;72104;-72
2023/01/17 08:51:31;;;;;;;22.50;13.80;;;;;;;7.68;76.42;99334.59;110432;1237;59291;-71
2023/01/17 08:54:00;;;;;;;19.80;13.80;;;;;;;7.77;75.98;99332.00;110398;1238;63220;-71
2023/01/17 08:56:29;;;;;;;22.00;13.40;;;;;;;7.87;75.33;99334.23;110412;1236;61215;-72
2023/01/17 08:58:58;;;;;;;23.60;14.30;;;;;;;8.00;75.34;99343.75;110138;1235;61750;-72
2023/01/17 09:01:26;;;;;;;20.80;13.40;;;;;;;8.12;74.95;99358.73;110343;1235;73129;-74
2023/01/17 09:03:55;;;;;;;18.10;12.80;;;;;;;8.08;74.52;99358.83;110355;1235;72674;-70
2023/01/17 09:06:24;;;;;;;19.90;13.00;;;;;;;8.21;74.02;99350.11;110479;1235;60861;-70
2023/01/17 09:08:53;;;;;;;20.20;12.80;;;;;;;8.28;73.67;99347.67;110457;1237;63077;-72
2023/01/17 09:11:22;;;;;;;18.90;12.10;;;;;;;8.42;73.59;99345.46;110355;1238;57160;-70
2023/01/17 09:13:51;;;;;;;19.40;12.50;;;;;;;8.51;73.15;99349.16;110436;1235;57685;-70
2023/01/17 09:16:19;;;;;;;22.80;12.50;;;;;;;8.55;72.53;99356.35;110503;1235;73473;-73
2023/01/17 09:18:53;;;;;;;18.90;12.50;;;;;;;8.62;72.93;99347.75;110494;1235;73217;-74
2023/01/17 09:21:22;;;;;;;19.70;12.10;;;;;;;8.59;72.01;99340.17;110433;1235;71029;-72
2023/01/17 09:23:52;;;;;;;22.40;12.60;;;;;;;8.62;72.18;99336.23;110473;1237;64017;-71
2023/01/17 09:26:28;;;;;;;18.80;12.20;;;;;;;8.61;72.08;99336.83;110316;1238;58885;-73
2023/01/17 09:28:57;;;;;;;20.60;11.70;;;;;;;8.58;72.29;99332.27;110489;1237;57740;-71
2023/01/17 09:31:27;;;;;;;20.50;11.20;;;;;;;8.63;71.84;99328.03;110475;1238;62933;-73
2023/01/17 09:33:57;;;;;;;21.20;12.10;;;;;;;8.57;71.94;99329.77;110139;1239;63032;-73
2023/01/17 09:36:27;;;;;;;21.00;11.70;;;;;;;8.46;72.39;99322.04;110179;1238;59981;-71
2023/01/17 09:38:57;;;;;;;17.60;11.20;;;;;;;8.43;72.54;99315.89;110298;1235;73847;-70
2023/01/17 09:41:53;;;;;;;21.50;12.00;;;;;;;8.41;72.76;99311.75;110290;1238;57711;-71
2023/01/17 09:45:00;;;;;;;21.10;12.10;;;;;;;8.59;72.19;99320.92;110397;1235;60342;-72
2023/01/17 09:47:40;;;;;;;19.50;12.40;;;;;;;8.78;72.90;99306.71;110360;1238;74232;-71
2023/01/17 09:50:42;;;;;;;16.90;11.70;;;;;;;8.96;72.07;99294.45;110409;1235;72842;-71
2023/01/17 09:53:19;;;;;;;21.80;12.20;;;;;;;9.02;71.49;99290.30;110410;1236;59690;-73
2023/01/17 09:56:00;;;;;;;19.70;11.90;;;;;;;9.05;71.01;99290.67;110416;1236;62432;-73
2023/01/17 09:59:09;;;;;;;19.80;11.80;;;;;;;9.02;70.75;99294.23;110413;1235;61232;-73
2023/01/17 10:02:21;;;;;;;19.00;10.90;;;;;;;9.24;70.02;99296.79;109619;1243;61845;-73
2023/01/17 10:05:19;;;;;;;19.90;12.30;;;;;;;9.03;70.35;99294.33;110287;1235;64833;-74
2023/01/17 10:08:36;;;;;;;21.50;10.40;;;;;;;9.08;70.69;99282.05;110236;1238;62250;-72
2023/01/17 10:11:54;;;;;;;20.10;11.80;;;;;;;9.22;70.39;99285.02;110358;1235;59751;-74
2023/01/17 10:15:39;;;;;;;19.10;11.00;;;;;;;9.23;70.38;99285.21;110437;1235;63220;-73
2023/01/17 10:18:58;;;;;;;18.60;11.20;;;;;;;9.24;69.62;99274.56;110046;1237;60579;-73
2023/01/17 10:22:09;;;;;;;19.10;10.50;;;;;;;9.36;69.57;99280.98;109897;1235;61552;-72
2023/01/17 10:25:26;;;;;;;16.80;10.80;;;;;;;9.27;69.29;99287.66;110358;1235;73969;-75
2023/01/17 10:28:12;;;;;;;19.50;11.10;;;;;;;9.18;69.28;99283.23;110396;1236;72715;-72
2023/01/17 10:30:49;;;;;;;20.40;11.70;;;;;;;9.18;69.44;99277.34;110502;1236;70829;-73
2023/01/17 10:33:26;;;;;;;22.00;11.30;;;;;;;9.15;69.60;99284.45;110088;1234;73377;-73
2023/01/17 10:36:04;;;;;;;15.80;10.30;;;;;;;9.14;69.81;99287.13;110543;1236;60848;-71
2023/01/17 10:38:37;;;;;;;17.30;10.30;;;;;;;9.05;69.89;99286.02;110417;1234;57200;-71
2023/01/17 10:41:21;;;;;;;18.50;10.90;;;;;;;9.05;70.17;99289.81;110568;1234;62143;-72
2023/01/17 10:44:19;;;;;;;18.60;10.60;;;;;;;9.00;70.68;99287.61;110592;1233;71033;-71
2023/01/17 10:47:02;;;;;;;21.30;10.80;;;;;;;8.99;70.77;99283.55;110468;1234;70845;-72
2023/01/17 10:49:31;;;;;;;;;;;;;;;9.07;70.68;99284.77;110260;1235;73753;-74
2023/01/17 10:52:18;;;;;;;23.40;10.80;;;;;;;9.09;70.72;99283.77;110090;1236;63122;-72
2023/01/17 10:54:57;;;;;;;20.40;10.30;;;;;;;9.08;70.63;99278.10;110161;1235;61616;-72
2023/01/17 10:57:27;;;;;;;22.60;11.10;;;;;;;9.08;70.88;99279.64;110299;1235;63883;-72
2023/01/17 10:59:59;;;;;;;20.70;11.10;;;;;;;9.14;70.80;99281.21;110269;1234;71292;-71
2023/01/17 11:02:35;;;;;;;17.00;10.90;;;;;;;9.14;70.73;99279.26;110307;1234;60488;-72
2023/01/17 11:05:20;;;;;;;20.80;10.30;;;;;;;9.20;70.40;99277.67;110545;1234;63221;-72
2023/01/17 11:08:01;;;;;;;22.60;12.50;;;;;;;9.31;69.99;99274.61;110284;1236;57706;-72
2023/01/17 11:10:38;;;;;;;18.40;10.70;;;;;;;9.44;69.52;99263.39;110467;1234;57182;-71
2023/01/17 11:13:37;;;;;;;21.90;11.30;;;;;;;9.51;69.00;99263.95;110538;1234;71058;-72
2023/01/17 11:16:18;;;;;;;21.20;9.80;;;;;;;9.66;68.21;99264.55;110552;1234;62408;-72
2023/01/17 11:19:26;;;;;;;16.20;8.90;;;;;;;9.57;67.98;99264.28;110434;1237;70386;-73
2023/01/17 11:22:03;;;;;;;15.50;10.30;;;;;;;9.52;67.99;99261.41;110298;1234;62942;-72
2023/01/17 11:24:40;;;;;;;16.00;10.00;;;;;;;9.52;68.00;99262.64;110280;1237;57710;-71
2023/01/17 11:27:29;;;;;;;15.80;9.30;;;;;;;9.60;67.78;99266.31;110582;1234;57698;-73
2023/01/17 11:30:03;;;;;;;14.70;9.90;;;;;;;9.65;67.87;99258.52;110481;1234;72733;-74
2023/01/17 11:32:33;;;;;;;19.90;10.70;;;;;;;9.66;67.65;99264.00;110287;1234;61581;-72
2023/01/17 11:35:24;;;;;;;19.40;9.40;;;;;;;9.67;67.73;99274.31;110562;1234;59968;-74
2023/01/17 11:38:09;;;;;;;22.80;9.60;;;;;;;9.69;68.07;99280.96;110552;1234;63117;-71
2023/01/17 11:40:43;;;;;;;19.10;10.10;;;;;;;9.72;67.96;99275.43;110423;1235;57165;-72
2023/01/17 11:43:26;;;;;;;19.70;10.40;;;;;;;9.78;67.95;99276.14;110424;1235;57723;-70
2023/01/17 11:46:04;;;;;;;17.80;9.50;;;;;;;9.96;68.27;99269.27;110161;1234;72081;-71
2023/01/17 11:48:37;;;;;;;15.80;10.30;;;;;;;10.07;67.29;99268.37;110434;1234;69112;-72
2023/01/17 11:51:31;;;;;;;;;;;;;;;10.22;66.85;99265.91;110386;1234;60086;-72
2023/01/17 11:54:27;;;;;;;14.70;8.60;;;;;;;10.35;66.50;99271.40;110401;1234;63220;-71
2023/01/17 11:57:00;;;;;;;23.60;10.60;;;;;;;10.47;66.32;99270.80;110285;1236;61377;-75
2023/01/17 11:59:36;;;;;;;17.70;9.90;;;;;;;10.52;66.80;99276.70;110295;1236;57355;-73
2023/01/17 12:02:42;;;;;;;19.10;9.20;;;;;;;10.56;66.14;99272.36;110360;1234;73393;-73
2023/01/17 12:05:52;;;;;;;14.70;8.70;;;;;;;10.57;65.66;99274.67;110425;1234;72609;-71
2023/01/17 12:08:51;;;;;;;17.80;9.60;;;;;;;10.43;66.12;99284.73;110577;1234;60298;-73
2023/01/17 12:15:22;;;;;;;19.30;9.70;;;;;;;10.68;65.77;99290.02;110420;1236;57626;-73
2023/01/17 12:18:12;;;;;;;13.70;9.30;;;;;;;10.58;65.64;99292.84;110412;1234;60447;-72
2023/01/17 12:21:16;;;;;;;14.30;8.20;;;;;;;10.60;65.73;99303.09;110427;1234;74050;-71
2023/01/17 12:23:54;;;;;;;18.50;9.70;;;;;;;10.61;65.76;99309.67;110257;1234;71931;-72
2023/01/17 12:26:32;;;;;;;16.90;10.50;;;;;;;10.70;65.96;99313.84;110278;1234;60186;-71
2023/01/17 12:29:23;;;;;;;14.10;8.60;;;;;;;10.72;66.00;99310.17;110415;1234;63299;-73
2023/01/17 12:32:12;;;;;;;14.00;9.90;;;;;;;10.71;65.93;99307.80;110465;1235;62233;-73
2023/01/17 12:35:14;;;;;;;16.40;9.10;;;;;;;10.58;66.79;99305.92;109911;1234;61532;-72
2023/01/17 12:37:48;;;;;;;16.70;8.80;;;;;;;10.58;66.76;99314.40;110267;1235;73036;-73
2023/01/17 12:40:48;;;;;;;20.70;10.30;;;;;;;10.52;66.78;99320.70;110300;1234;62552;-73
2023/01/17 12:43:42;;;;;;;15.40;10.60;;;;;;;10.46;67.00;99320.92;110030;1234;59956;-71
2023/01/17 12:46:25;;;;;;;16.00;9.90;;;;;;;10.49;67.18;99323.44;110331;1234;74397;-72
2023/01/17 12:49:15;;;;;;;14.50;9.10;;;;;;;10.43;67.07;99311.84;110392;1236;62695;-73
2023/01/17 12:51:49;;;;;;;17.30;9.00;;;;;;;10.46;67.25;99313.13;110309;1234;57741;-73
2023/01/17 12:54:46;;;;;;;14.90;9.10;;;;;;;10.50;67.33;99315.23;110476;1235;72663;-72
2023/01/17 12:57:26;;;;;;;16.80;10.20;;;;;;;10.43;67.58;99306.48;110665;1234;72602;-72
2023/01/17 13:00:18;;;;;;;17.50;9.80;;;;;;;10.41;67.40;99303.83;110494;1235;71086;-73
2023/01/17 13:03:21;;;;;;;19.80;9.60;;;;;;;10.43;67.43;99300.03;110246;1234;63464;-74
2023/01/17 13:05:51;;;;;;;18.00;9.70;;;;;;;10.42;67.56;99286.38;110378;1238;60189;-74
2023/01/17 13:08:45;;;;;;;19.50;9.00;;;;;;;10.39;67.73;99285.95;110471;1234;60985;-74
2023/01/17 13:11:27;;;;;;;16.10;9.70;;;;;;;10.34;67.92;99280.30;110526;1235;63246;-74
2023/01/17 13:13:58;;;;;;;17.60;10.00;;;;;;;10.30;68.11;99276.14;110369;1233;62289;-72
2023/01/17 13:16:27;;;;;;;18.60;9.30;;;;;;;10.30;68.29;99280.69;110496;1233;59036;-73
2023/01/17 13:19:03;;;;;;;18.90;9.70;;;;;;;10.30;68.32;99280.19;110531;1234;63220;-73
2023/01/17 13:21:34;;;;;;;14.40;8.80;;;;;;;10.30;68.17;99280.73;110528;1236;57271;-74
2023/01/17 13:24:19;;;;;;;16.40;8.40;;;;;;;10.32;68.20;99282.10;110563;1235;57713;-74